Time;durP1;ratioP1;P1;durP2;ratioP2;P2;SDS_P1;SDS_P2;PMS_P1;PMS_P2;Temp;Humidity;BMP_temperature;BMP_pressure;BME280_temperature;BME280_humidity;BME280_pressure;Samples;Min_cycle;Max_cycle;Signal;HPM_P1;HPM_P2
2020/12/27 00:01:38;;;;;;;6.57;4.73;;;-1.20;99.90;;;;;;4950829;28;20436;-65
2020/12/27 00:04:03;;;;;;;9.93;5.30;;;-1.20;99.90;;;;;;4951787;28;20181;-66
2020/12/27 00:06:30;;;;;;;6.27;4.60;;;-1.20;99.90;;;;;;4951847;28;20247;-67
2020/12/27 00:08:55;;;;;;;5.67;4.17;;;-1.30;99.90;;;;;;4950698;28;20236;-66
2020/12/27 00:11:21;;;;;;;5.40;4.33;;;-1.20;99.90;;;;;;4951440;28;20888;-66
2020/12/27 00:13:46;;;;;;;9.67;5.93;;;-1.30;99.90;;;;;;4951367;28;20181;-65
2020/12/27 00:16:12;;;;;;;6.90;4.47;;;-1.30;99.90;;;;;;4951629;28;20603;-67
2020/12/27 00:18:37;;;;;;;8.77;4.13;;;-1.30;99.90;;;;;;4950512;28;20189;-66
2020/12/27 00:21:03;;;;;;;5.70;4.67;;;-1.40;99.90;;;;;;4951191;28;20185;-65
2020/12/27 00:23:28;;;;;;;7.60;4.60;;;-1.40;99.90;;;;;;4951402;28;20676;-66
2020/12/27 00:25:54;;;;;;;9.83;4.90;;;-1.40;99.90;;;;;;4950885;28;20181;-66
2020/12/27 00:28:19;;;;;;;10.00;5.70;;;-1.40;99.90;;;;;;4950539;28;20277;-65
2020/12/27 00:30:45;;;;;;;8.57;6.00;;;-1.40;99.90;;;;;;4950851;28;20177;-66
2020/12/27 00:33:10;;;;;;;6.40;4.33;;;-1.40;99.90;;;;;;4951310;28;20173;-65
2020/12/27 00:35:36;;;;;;;7.53;4.97;;;-1.40;99.90;;;;;;4951032;28;20416;-66
2020/12/27 00:38:02;;;;;;;6.73;5.27;;;-1.40;99.90;;;;;;4950073;28;20201;-66
2020/12/27 00:40:28;;;;;;;5.53;4.40;;;-1.40;99.90;;;;;;4951009;28;20795;-66
2020/12/27 00:42:53;;;;;;;5.30;4.80;;;-1.40;99.90;;;;;;4950946;28;20189;-66
2020/12/27 00:45:19;;;;;;;6.73;4.87;;;-1.40;99.90;;;;;;4951089;28;20232;-67
2020/12/27 00:47:44;;;;;;;4.67;4.17;;;-1.40;99.90;;;;;;4950068;28;20252;-66
2020/12/27 00:50:10;;;;;;;9.40;5.47;;;-1.40;99.90;;;;;;4951438;28;20204;-66
2020/12/27 00:52:35;;;;;;;5.93;4.57;;;-1.40;99.90;;;;;;4951053;28;20260;-65
2020/12/27 00:55:01;;;;;;;6.30;4.27;;;-1.40;99.90;;;;;;4950297;28;20177;-67
2020/12/27 00:57:26;;;;;;;8.80;5.40;;;-1.40;99.90;;;;;;4950669;28;20688;-66
2020/12/27 00:59:52;;;;;;;4.20;3.80;;;-1.40;99.90;;;;;;4949786;28;20212;-67
2020/12/27 01:02:17;;;;;;;8.60;5.80;;;-1.40;99.90;;;;;;4949634;28;20264;-66
2020/12/27 01:04:43;;;;;;;6.57;4.37;;;-1.40;99.90;;;;;;4950414;28;20185;-66
2020/12/27 01:07:08;;;;;;;5.67;4.40;;;-1.40;99.90;;;;;;4950513;28;20302;-66
2020/12/27 01:09:34;;;;;;;6.27;4.90;;;-1.40;99.90;;;;;;4949453;28;20749;-65
2020/12/27 01:11:59;;;;;;;6.13;4.23;;;-1.50;99.90;;;;;;4950587;28;20203;-65
2020/12/27 01:14:25;;;;;;;6.73;4.70;;;-1.50;99.90;;;;;;4948656;29;20173;-66
2020/12/27 01:16:50;;;;;;;6.23;5.63;;;-1.50;99.90;;;;;;4950159;28;20192;-65
2020/12/27 01:19:17;;;;;;;5.87;4.57;;;-1.50;99.90;;;;;;4949547;28;20177;-66
2020/12/27 01:21:43;;;;;;;7.17;4.80;;;-1.40;99.90;;;;;;4950149;28;20200;-66
2020/12/27 01:24:09;;;;;;;9.43;5.73;;;-1.40;99.90;;;;;;4950308;28;20468;-66
2020/12/27 01:26:34;;;;;;;6.03;3.93;;;-1.40;99.90;;;;;;4949776;28;20331;-66
2020/12/27 01:29:01;;;;;;;10.37;5.97;;;-1.40;99.90;;;;;;4949307;28;20951;-66
2020/12/27 01:31:27;;;;;;;6.13;5.00;;;-1.40;99.90;;;;;;4949984;28;20181;-67
2020/12/27 01:33:53;;;;;;;5.23;4.30;;;-1.40;99.90;;;;;;4950090;28;20507;-67
2020/12/27 01:36:29;;;;;;;10.40;5.90;;;-1.40;99.90;;;;;;4949953;28;20201;-67
2020/12/27 01:38:56;;;;;;;7.93;4.90;;;-1.40;99.90;;;;;;4949440;28;20420;-68
2020/12/27 01:41:22;;;;;;;6.80;4.50;;;-1.40;99.90;;;;;;4950492;28;20433;-67
2020/12/27 01:44:03;;;;;;;5.57;3.83;;;-1.40;99.90;;;;;;4950292;28;20437;-65
2020/12/27 01:46:34;;;;;;;6.60;4.73;;;-1.40;99.90;;;;;;4950070;28;20441;-67
2020/12/27 01:48:59;;;;;;;8.23;5.50;;;-1.40;99.90;;;;;;4949082;28;20527;-66
2020/12/27 01:51:25;;;;;;;8.00;4.93;;;-1.50;99.90;;;;;;4949931;28;20412;-67
2020/12/27 01:53:51;;;;;;;6.13;4.43;;;-1.50;99.90;;;;;;4949734;28;20413;-66
2020/12/27 01:56:19;;;;;;;8.40;4.87;;;-1.60;99.90;;;;;;4949813;28;20699;-65
2020/12/27 01:58:53;;;;;;;8.40;6.27;;;-1.60;99.90;;;;;;4948482;28;20443;-65
2020/12/27 02:01:19;;;;;;;10.13;6.03;;;-1.60;99.90;;;;;;4948775;28;20428;-66
2020/12/27 02:03:44;;;;;;;5.67;4.87;;;-1.70;99.90;;;;;;4949856;28;20438;-66
2020/12/27 02:06:10;;;;;;;9.50;5.93;;;-1.70;99.90;;;;;;4949206;28;20284;-65
2020/12/27 02:08:37;;;;;;;10.53;5.20;;;-1.70;99.90;;;;;;4948692;28;20642;-66
2020/12/27 02:11:03;;;;;;;7.97;5.30;;;-1.70;99.90;;;;;;4949385;28;20173;-66
2020/12/27 02:13:29;;;;;;;6.40;4.33;;;-1.70;99.90;;;;;;4949563;28;20451;-67
2020/12/27 02:15:54;;;;;;;6.73;4.93;;;-1.70;99.90;;;;;;4949211;28;21003;-68
2020/12/27 02:18:20;;;;;;;8.40;4.47;;;-1.70;99.90;;;;;;4947147;29;20189;-68
2020/12/27 02:20:45;;;;;;;6.33;4.80;;;-1.70;99.90;;;;;;4949199;28;20173;-67
2020/12/27 02:23:17;;;;;;;5.67;4.50;;;-1.70;99.90;;;;;;4949625;28;20177;-68
2020/12/27 02:25:43;;;;;;;7.10;5.03;;;-1.70;99.90;;;;;;4949782;29;20737;-65
2020/12/27 02:28:08;;;;;;;7.10;5.20;;;-1.70;99.90;;;;;;4948604;28;20538;-65
2020/12/27 02:30:34;;;;;;;5.03;4.13;;;-1.70;99.90;;;;;;4949368;28;20559;-66
2020/12/27 02:32:59;;;;;;;7.20;4.33;;;-1.70;99.90;;;;;;4949322;28;20267;-66
2020/12/27 02:35:25;;;;;;;5.40;4.00;;;-1.70;99.90;;;;;;4949445;28;20181;-67
2020/12/27 02:37:50;;;;;;;6.17;4.63;;;-1.70;99.90;;;;;;4948351;28;20192;-66
2020/12/27 02:40:16;;;;;;;5.53;4.50;;;-1.70;99.90;;;;;;4949422;28;20546;-66
2020/12/27 02:42:42;;;;;;;8.03;4.87;;;-1.70;99.90;;;;;;4948994;28;20586;-66
2020/12/27 02:45:10;;;;;;;6.70;4.47;;;-1.70;99.90;;;;;;4949290;28;20252;-67
2020/12/27 02:47:40;;;;;;;11.70;5.23;;;-1.70;99.90;;;;;;4948738;28;20271;-65
2020/12/27 02:50:08;;;;;;;5.93;4.37;;;-1.60;99.90;;;;;;4948872;28;21009;-65
2020/12/27 02:52:34;;;;;;;9.07;5.10;;;-1.60;99.90;;;;;;4949206;28;20431;-65
2020/12/27 02:54:59;;;;;;;8.27;4.60;;;-1.60;99.90;;;;;;4948888;28;20819;-67
2020/12/27 02:57:25;;;;;;;7.07;4.90;;;-1.60;99.90;;;;;;4948944;28;20197;-65
2020/12/27 02:59:50;;;;;;;6.77;4.50;;;-1.60;99.90;;;;;;4948012;28;20185;-65
2020/12/27 03:02:16;;;;;;;8.07;5.17;;;-1.50;99.90;;;;;;4948118;28;20252;-65
2020/12/27 03:04:41;;;;;;;8.20;4.40;;;-1.50;99.90;;;;;;4949003;28;20184;-66
2020/12/27 03:07:07;;;;;;;7.27;4.63;;;-1.50;99.90;;;;;;4949268;28;20224;-66
2020/12/27 03:09:32;;;;;;;6.77;4.63;;;-1.50;99.90;;;;;;4948454;28;20204;-65
2020/12/27 03:11:58;;;;;;;6.40;4.77;;;-1.50;99.90;;;;;;4949144;28;20200;-65
2020/12/27 03:14:23;;;;;;;9.30;4.60;;;-1.50;99.90;;;;;;4949101;28;20244;-65
2020/12/27 03:16:49;;;;;;;4.77;4.27;;;-1.50;99.90;;;;;;4948539;28;20204;-66
2020/12/27 03:19:14;;;;;;;5.53;4.80;;;-1.50;99.90;;;;;;4950419;28;20196;-66
2020/12/27 03:21:40;;;;;;;8.73;5.27;;;-1.50;99.90;;;;;;4952423;28;20285;-66
2020/12/27 03:24:05;;;;;;;7.93;4.57;;;-1.50;99.90;;;;;;4952549;28;20553;-65
2020/12/27 03:26:31;;;;;;;5.40;4.70;;;-1.50;99.90;;;;;;4952342;28;20216;-66
2020/12/27 03:28:56;;;;;;;6.00;4.43;;;-1.50;99.90;;;;;;4951695;28;20218;-66
2020/12/27 03:31:22;;;;;;;7.10;5.27;;;-1.60;99.90;;;;;;4952411;28;20181;-66
2020/12/27 03:33:47;;;;;;;8.17;4.53;;;-1.60;99.90;;;;;;4952115;28;21108;-67
2020/12/27 03:36:13;;;;;;;7.17;5.57;;;-1.60;99.90;;;;;;4952345;28;20212;-65
2020/12/27 03:38:38;;;;;;;8.07;4.90;;;-1.60;99.90;;;;;;4951151;28;20173;-65
2020/12/27 03:41:04;;;;;;;5.20;4.70;;;-1.60;99.90;;;;;;4952180;28;20212;-66
2020/12/27 03:43:29;;;;;;;5.60;4.40;;;-1.60;99.90;;;;;;4951858;28;20177;-66
2020/12/27 03:45:55;;;;;;;8.30;5.10;;;-1.60;99.90;;;;;;4952215;28;20200;-66
2020/12/27 03:48:20;;;;;;;6.70;5.10;;;-1.60;99.90;;;;;;4951511;28;20587;-66
2020/12/27 03:50:46;;;;;;;8.50;6.30;;;-1.60;99.90;;;;;;4951793;28;20184;-67
2020/12/27 03:53:11;;;;;;;8.10;5.60;;;-1.60;99.90;;;;;;4951990;28;20188;-65
2020/12/27 03:55:37;;;;;;;8.77;5.60;;;-1.60;99.90;;;;;;4951821;28;20203;-66
2020/12/27 03:58:02;;;;;;;5.73;5.13;;;-1.70;99.90;;;;;;4951212;28;20204;-65
2020/12/27 04:00:30;;;;;;;11.77;4.57;;;-1.70;99.90;;;;;;4950742;28;20193;-67
2020/12/27 04:02:56;;;;;;;8.43;4.83;;;-1.70;99.90;;;;;;4952004;28;20181;-66
2020/12/27 04:05:21;;;;;;;6.07;4.77;;;-1.70;99.90;;;;;;4951590;28;20491;-65
2020/12/27 04:07:47;;;;;;;6.73;4.13;;;-1.70;99.90;;;;;;4950967;28;20204;-66
2020/12/27 04:10:12;;;;;;;6.90;4.77;;;-1.70;99.90;;;;;;4951803;28;20757;-65
2020/12/27 04:12:38;;;;;;;7.27;6.20;;;-1.70;99.90;;;;;;4966144;28;20184;-66
2020/12/27 04:15:03;;;;;;;7.37;5.07;;;-1.80;99.90;;;;;;4951679;28;20181;-66
2020/12/27 04:17:29;;;;;;;6.80;4.90;;;-1.80;99.90;;;;;;4951196;28;20196;-66
2020/12/27 04:19:54;;;;;;;9.60;5.00;;;-1.80;99.90;;;;;;4950740;28;20211;-66
2020/12/27 04:22:20;;;;;;;5.40;4.30;;;-1.80;99.90;;;;;;4951216;28;20622;-65
2020/12/27 04:24:45;;;;;;;9.50;4.80;;;-1.80;99.90;;;;;;4951343;28;20658;-65
2020/12/27 04:27:11;;;;;;;5.13;4.57;;;-1.80;99.90;;;;;;4950930;28;20655;-67
2020/12/27 04:29:37;;;;;;;5.73;4.80;;;-1.90;99.90;;;;;;4950395;28;20216;-67
2020/12/27 04:32:02;;;;;;;7.23;4.30;;;-1.90;99.90;;;;;;4951324;28;20579;-67
2020/12/27 04:34:28;;;;;;;6.93;4.50;;;-1.90;99.90;;;;;;4951008;29;20184;-65
2020/12/27 04:36:53;;;;;;;8.40;5.30;;;-1.90;99.90;;;;;;4951202;28;20837;-66
2020/12/27 04:39:19;;;;;;;6.07;4.83;;;-1.90;99.90;;;;;;4950158;28;20180;-66
2020/12/27 04:41:45;;;;;;;5.23;4.10;;;-1.90;99.90;;;;;;4951288;28;20188;-65
2020/12/27 04:44:11;;;;;;;8.97;5.00;;;-1.90;99.90;;;;;;4949739;29;20185;-65
2020/12/27 04:46:39;;;;;;;5.03;4.53;;;-1.80;99.90;;;;;;4951359;28;20547;-65
2020/12/27 04:49:07;;;;;;;9.33;5.10;;;-1.80;99.90;;;;;;4950203;28;20837;-68
2020/12/27 04:51:34;;;;;;;6.43;4.97;;;-1.80;99.90;;;;;;4951329;28;20425;-68
2020/12/27 04:54:00;;;;;;;5.07;4.43;;;-1.80;99.90;;;;;;4951150;28;20424;-66
2020/12/27 04:56:26;;;;;;;6.50;4.77;;;-1.80;99.90;;;;;;4950709;28;20452;-69
2020/12/27 04:58:54;;;;;;;10.97;6.03;;;-1.80;99.90;;;;;;4950079;28;20554;-65
2020/12/27 05:01:20;;;;;;;6.83;4.90;;;-1.80;99.90;;;;;;4949750;28;20776;-66
2020/12/27 05:03:45;;;;;;;6.17;4.90;;;-1.80;99.90;;;;;;4950710;28;20483;-68
2020/12/27 05:06:14;;;;;;;7.40;5.10;;;-1.80;99.90;;;;;;4950472;28;20708;-65
2020/12/27 05:08:44;;;;;;;5.37;4.47;;;-1.80;99.90;;;;;;4949856;28;20275;-66
2020/12/27 05:11:13;;;;;;;5.60;5.07;;;-1.80;99.90;;;;;;4948658;29;20992;-66
2020/12/27 05:13:38;;;;;;;6.57;4.80;;;-1.80;99.90;;;;;;4950786;28;20519;-66
2020/12/27 05:16:04;;;;;;;7.30;5.60;;;-1.80;99.90;;;;;;4950483;28;20503;-65
2020/12/27 05:18:30;;;;;;;5.60;4.37;;;-1.80;99.90;;;;;;4949284;28;20177;-65
2020/12/27 05:20:56;;;;;;;9.37;5.97;;;-1.80;99.90;;;;;;4950416;28;20779;-66
2020/12/27 05:23:26;;;;;;;5.83;4.90;;;-1.80;99.90;;;;;;4950148;28;20424;-65
2020/12/27 05:25:51;;;;;;;7.30;5.57;;;-1.80;99.90;;;;;;4950193;28;20173;-65
2020/12/27 05:28:18;;;;;;;9.30;5.50;;;-1.80;99.90;;;;;;4950043;28;20861;-66
2020/12/27 05:30:44;;;;;;;6.23;5.40;;;-1.80;99.90;;;;;;4950268;28;20970;-66
2020/12/27 05:33:13;;;;;;;10.30;4.90;;;-1.80;99.90;;;;;;4950278;28;20429;-66
2020/12/27 05:35:39;;;;;;;8.50;5.63;;;-1.80;99.90;;;;;;4950692;28;20192;-66
2020/12/27 05:38:07;;;;;;;6.60;5.33;;;-1.80;99.90;;;;;;4949745;28;20445;-66
2020/12/27 05:40:37;;;;;;;5.67;5.00;;;-1.80;99.90;;;;;;4949479;28;20436;-66
2020/12/27 05:43:17;;;;;;;6.30;5.17;;;-1.80;99.90;;;;;;4949966;28;20858;-67
2020/12/27 05:45:43;;;;;;;6.93;5.07;;;-1.80;99.90;;;;;;4949771;28;20775;-66
2020/12/27 05:48:09;;;;;;;8.30;5.20;;;-1.70;99.90;;;;;;4949286;28;20448;-66
2020/12/27 05:50:40;;;;;;;6.67;5.47;;;-1.70;99.90;;;;;;4949446;28;20969;-66
2020/12/27 05:53:20;;;;;;;5.70;5.07;;;-1.70;99.90;;;;;;4949769;28;20774;-66
2020/12/27 05:55:50;;;;;;;5.90;4.10;;;-1.70;99.90;;;;;;4949488;28;20507;-66
2020/12/27 05:58:21;;;;;;;8.40;5.53;;;-1.70;99.90;;;;;;4948974;28;20424;-66
2020/12/27 06:00:54;;;;;;;9.40;6.47;;;-1.70;99.90;;;;;;4949794;28;20931;-66
2020/12/27 06:03:24;;;;;;;9.07;5.23;;;-1.70;99.90;;;;;;4949988;28;20464;-66
2020/12/27 06:05:56;;;;;;;8.30;5.40;;;-1.70;99.90;;;;;;4949751;28;20433;-66
2020/12/27 06:08:27;;;;;;;5.70;5.10;;;-1.70;99.90;;;;;;4948734;28;20512;-66
2020/12/27 06:11:05;;;;;;;6.10;4.70;;;-1.60;99.90;;;;;;4949553;28;20436;-66
2020/12/27 06:13:51;;;;;;;6.53;4.80;;;-1.60;99.90;;;;;;4949475;28;20428;-66
2020/12/27 06:16:23;;;;;;;7.40;6.60;;;-1.60;99.90;;;;;;4949585;28;20436;-66
2020/12/27 06:19:32;;;;;;;6.57;5.07;;;-1.60;99.90;;;;;;4948215;29;20447;-66
2020/12/27 06:22:09;;;;;;;6.43;5.03;;;-1.60;99.90;;;;;;4948258;28;20441;-66
2020/12/27 06:24:38;;;;;;;8.20;4.93;;;-1.60;99.90;;;;;;4948185;28;20939;-66
2020/12/27 06:27:05;;;;;;;5.33;4.20;;;-1.60;99.90;;;;;;4949622;28;20471;-66
2020/12/27 06:29:34;;;;;;;11.60;4.70;;;-1.60;99.90;;;;;;4948640;28;20468;-66
2020/12/27 06:32:04;;;;;;;6.70;4.77;;;-1.50;99.90;;;;;;4949938;28;20430;-66
2020/12/27 06:34:30;;;;;;;7.30;5.40;;;-1.50;99.90;;;;;;4949353;28;20488;-66
2020/12/27 06:36:58;;;;;;;7.40;4.90;;;-1.50;99.90;;;;;;4949560;28;21258;-66
2020/12/27 06:39:29;;;;;;;9.90;4.97;;;-1.40;99.90;;;;;;4948677;28;20440;-66
2020/12/27 06:42:07;;;;;;;5.80;4.50;;;-1.40;99.90;;;;;;4948043;29;20865;-66
2020/12/27 06:44:49;;;;;;;7.50;4.30;;;-1.40;99.90;;;;;;4949312;28;20432;-66
2020/12/27 06:47:16;;;;;;;9.27;6.53;;;-1.40;99.90;;;;;;4949267;28;20507;-66
2020/12/27 06:49:42;;;;;;;8.83;6.37;;;-1.50;99.90;;;;;;4948558;28;20640;-66
2020/12/27 06:52:24;;;;;;;5.00;4.50;;;-1.40;99.90;;;;;;4948986;28;20967;-66
2020/12/27 06:54:54;;;;;;;5.67;5.03;;;-1.40;99.90;;;;;;4952647;28;20654;-66
2020/12/27 06:57:49;;;;;;;9.23;4.77;;;-1.50;99.90;;;;;;4952958;29;20436;-66
2020/12/27 07:00:20;;;;;;;5.67;4.40;;;-1.50;99.90;;;;;;4951338;28;20780;-66
2020/12/27 07:02:46;;;;;;;8.60;4.20;;;-1.50;99.90;;;;;;4952577;28;20420;-66
2020/12/27 07:05:28;;;;;;;6.23;5.63;;;-1.40;99.90;;;;;;4952911;28;20424;-66
2020/12/27 07:07:53;;;;;;;4.83;4.23;;;-1.40;99.90;;;;;;4951667;28;20953;-66
2020/12/27 07:10:22;;;;;;;5.00;4.50;;;-1.40;99.90;;;;;;4952812;28;20466;-66
2020/12/27 07:12:48;;;;;;;7.20;4.90;;;-1.30;99.90;;;;;;4952763;28;20542;-68
2020/12/27 07:15:15;;;;;;;7.97;5.70;;;-1.30;99.90;;;;;;4953026;28;20425;-68
2020/12/27 07:17:42;;;;;;;10.80;4.77;;;-1.30;99.90;;;;;;4951742;28;20714;-68
2020/12/27 07:20:15;;;;;;;5.90;4.30;;;-1.30;99.90;;;;;;4952828;28;20464;-68
2020/12/27 07:22:42;;;;;;;11.07;5.47;;;-1.30;99.90;;;;;;4952740;28;20432;-68
2020/12/27 07:25:15;;;;;;;5.13;4.63;;;-1.30;99.90;;;;;;4952167;28;20515;-68
2020/12/27 07:27:42;;;;;;;5.90;4.40;;;-1.30;99.90;;;;;;4951585;28;21061;-68
2020/12/27 07:30:09;;;;;;;6.47;5.80;;;-1.30;99.90;;;;;;4952082;28;20916;-68
2020/12/27 07:32:43;;;;;;;6.83;5.40;;;-1.30;99.90;;;;;;4952275;28;20812;-68
2020/12/27 07:35:09;;;;;;;6.50;4.30;;;-1.20;99.90;;;;;;4951990;28;20518;-68
2020/12/27 07:37:36;;;;;;;4.70;4.00;;;-1.20;99.90;;;;;;4951574;28;20819;-68
2020/12/27 07:40:06;;;;;;;7.93;5.37;;;-1.10;99.90;;;;;;4951600;28;20431;-66
2020/12/27 07:42:33;;;;;;;6.93;4.63;;;-1.10;99.90;;;;;;4952103;28;20511;-66
2020/12/27 07:45:02;;;;;;;6.37;4.77;;;-0.90;99.90;;;;;;4952393;28;20436;-66
2020/12/27 07:47:28;;;;;;;8.20;5.80;;;-0.90;99.90;;;;;;4951871;28;20455;-66
2020/12/27 07:50:20;;;;;;;6.07;4.90;;;-0.90;99.90;;;;;;4951100;28;20476;-66
2020/12/27 07:52:55;;;;;;;6.97;4.37;;;-0.90;99.90;;;;;;4949167;29;20467;-66
2020/12/27 07:55:31;;;;;;;9.23;6.10;;;-0.90;99.90;;;;;;4952039;29;20428;-66
2020/12/27 07:58:00;;;;;;;6.63;5.17;;;-0.90;99.90;;;;;;4949698;28;20452;-66
2020/12/27 08:00:34;;;;;;;8.30;5.07;;;-1.00;99.90;;;;;;4950547;28;20815;-66
2020/12/27 08:03:10;;;;;;;5.90;4.63;;;-1.00;99.90;;;;;;4951663;28;20480;-66
2020/12/27 08:05:37;;;;;;;8.37;6.10;;;-0.90;99.90;;;;;;4951451;28;20432;-66
2020/12/27 08:08:05;;;;;;;10.47;6.60;;;-0.90;99.90;;;;;;4950849;28;20954;-68
2020/12/27 08:10:30;;;;;;;6.40;4.90;;;-0.90;99.90;;;;;;4951989;28;20472;-67
2020/12/27 08:12:59;;;;;;;5.03;3.97;;;-1.00;99.90;;;;;;4951742;28;20784;-67
2020/12/27 08:15:27;;;;;;;5.30;4.40;;;-1.00;99.90;;;;;;4951861;28;20179;-67
2020/12/27 08:17:52;;;;;;;7.70;5.77;;;-1.00;99.90;;;;;;4950862;28;20448;-67
2020/12/27 08:20:18;;;;;;;7.93;5.10;;;-1.00;99.90;;;;;;4950127;29;20459;-67
2020/12/27 08:22:44;;;;;;;6.90;4.90;;;-1.00;99.90;;;;;;4951483;28;20212;-67
2020/12/27 08:25:12;;;;;;;8.77;5.90;;;-1.00;99.90;;;;;;4950015;29;20202;-67
2020/12/27 08:27:38;;;;;;;7.20;5.30;;;-0.90;99.90;;;;;;4950813;28;20316;-67
2020/12/27 08:30:05;;;;;;;7.20;5.63;;;-0.90;99.90;;;;;;4950937;28;20580;-67
2020/12/27 08:32:31;;;;;;;5.43;4.30;;;-0.90;99.90;;;;;;4951573;28;20183;-67
2020/12/27 08:34:56;;;;;;;7.77;6.27;;;-0.90;99.90;;;;;;4951036;28;20424;-67
2020/12/27 08:37:27;;;;;;;6.50;5.17;;;-0.90;99.90;;;;;;4951039;28;20201;-67
2020/12/27 08:39:55;;;;;;;7.53;5.27;;;-0.80;99.90;;;;;;4950508;28;20263;-67
2020/12/27 08:42:28;;;;;;;6.77;4.73;;;-0.70;99.90;;;;;;4950889;28;20436;-67
2020/12/27 08:45:14;;;;;;;6.23;5.50;;;-0.70;99.90;;;;;;4951173;28;20429;-66
2020/12/27 08:47:44;;;;;;;7.33;5.03;;;-0.70;99.90;;;;;;4950546;28;20454;-67
2020/12/27 08:50:40;;;;;;;8.27;6.00;;;-0.60;99.90;;;;;;4950971;28;20472;-66
2020/12/27 08:53:08;;;;;;;5.77;4.53;;;-0.50;99.90;;;;;;4950773;28;20475;-66
2020/12/27 08:55:34;;;;;;;5.50;4.27;;;-0.30;99.90;;;;;;4950835;28;20432;-66
2020/12/27 08:58:02;;;;;;;9.03;5.90;;;-0.20;99.90;;;;;;4949763;28;20460;-66
2020/12/27 09:00:32;;;;;;;8.40;5.10;;;-0.20;99.90;;;;;;4949413;29;20560;-66
2020/12/27 09:03:00;;;;;;;8.80;5.97;;;-0.10;99.90;;;;;;4950539;28;20444;-66
2020/12/27 09:05:27;;;;;;;6.83;4.90;;;0.00;99.90;;;;;;4950651;29;20432;-66
2020/12/27 09:07:53;;;;;;;5.83;5.17;;;0.10;99.90;;;;;;4949465;29;20456;-66
2020/12/27 09:10:20;;;;;;;10.83;5.13;;;0.10;99.90;;;;;;4950532;29;20478;-66
2020/12/27 09:13:04;;;;;;;6.00;5.30;;;0.20;99.90;;;;;;4950691;29;20424;-66
2020/12/27 09:15:35;;;;;;;6.33;4.57;;;0.40;99.90;;;;;;4949674;28;20918;-66
2020/12/27 09:18:02;;;;;;;6.90;4.80;;;0.50;99.90;;;;;;4949340;29;20472;-66
2020/12/27 09:20:30;;;;;;;6.93;5.37;;;0.50;99.90;;;;;;4950156;29;20584;-66
2020/12/27 09:22:56;;;;;;;6.20;5.40;;;0.60;99.90;;;;;;4950151;28;20429;-66
2020/12/27 09:25:23;;;;;;;8.00;5.50;;;0.70;99.90;;;;;;4950004;29;20456;-66
2020/12/27 09:27:51;;;;;;;5.83;4.40;;;0.70;99.90;;;;;;4949623;29;20539;-67
2020/12/27 09:30:25;;;;;;;8.10;4.50;;;0.60;99.90;;;;;;4950098;28;20627;-66
2020/12/27 09:32:59;;;;;;;6.90;5.23;;;0.60;99.90;;;;;;4950234;29;20838;-66
2020/12/27 09:35:26;;;;;;;6.47;5.73;;;0.60;99.90;;;;;;4950092;29;20965;-66
2020/12/27 09:37:52;;;;;;;6.53;4.57;;;0.60;99.90;;;;;;4947802;29;20861;-67
2020/12/27 09:40:19;;;;;;;5.50;4.30;;;0.60;99.90;;;;;;4950001;29;20802;-66
2020/12/27 09:42:46;;;;;;;7.47;5.23;;;0.70;99.90;;;;;;4949720;29;20802;-66
2020/12/27 09:45:22;;;;;;;5.70;5.03;;;0.90;99.90;;;;;;4949747;29;20950;-66
2020/12/27 09:47:53;;;;;;;6.37;5.00;;;0.90;99.90;;;;;;4949018;29;20836;-66
2020/12/27 09:50:26;;;;;;;5.63;4.20;;;1.00;99.90;;;;;;4949944;29;20463;-66
2020/12/27 09:52:52;;;;;;;5.50;4.53;;;1.20;99.90;;;;;;4949699;29;20431;-66
2020/12/27 09:55:17;;;;;;;5.03;4.53;;;1.20;99.90;;;;;;4949975;29;20471;-66
2020/12/27 09:57:43;;;;;;;5.37;4.33;;;1.40;99.90;;;;;;4948615;29;20697;-66
2020/12/27 10:00:09;;;;;;;4.97;4.00;;;1.40;99.90;;;;;;4949834;29;20181;-66
2020/12/27 10:02:34;;;;;;;6.93;5.13;;;1.40;99.90;;;;;;4949734;28;20203;-66
2020/12/27 10:05:00;;;;;;;5.93;4.80;;;1.20;99.90;;;;;;4949456;28;20447;-66
2020/12/27 10:07:26;;;;;;;6.13;5.00;;;1.10;99.90;;;;;;4949510;28;20209;-66
2020/12/27 10:09:51;;;;;;;10.77;5.47;;;1.00;99.90;;;;;;4948107;28;20217;-66
2020/12/27 10:12:18;;;;;;;8.30;5.97;;;1.10;99.90;;;;;;4949560;28;20667;-66
2020/12/27 10:14:44;;;;;;;8.70;5.00;;;1.10;99.90;;;;;;4949505;28;20173;-66
2020/12/27 10:17:10;;;;;;;5.33;4.53;;;0.90;99.90;;;;;;4949756;28;20812;-66
2020/12/27 10:19:36;;;;;;;6.43;4.97;;;0.80;99.90;;;;;;4948693;28;20177;-66
2020/12/27 10:22:02;;;;;;;5.80;4.57;;;0.90;99.90;;;;;;4949677;28;20219;-66
2020/12/27 10:24:31;;;;;;;5.70;4.53;;;1.00;99.90;;;;;;4949848;28;20436;-66
2020/12/27 10:26:57;;;;;;;7.00;4.90;;;1.10;99.90;;;;;;4949003;28;20471;-66
2020/12/27 10:29:23;;;;;;;5.10;4.60;;;1.20;99.90;;;;;;4948519;28;20538;-66
2020/12/27 10:31:50;;;;;;;10.10;5.83;;;1.10;99.90;;;;;;4949256;28;20440;-67
2020/12/27 10:34:16;;;;;;;6.63;4.73;;;1.10;99.90;;;;;;4949436;28;20184;-66
2020/12/27 10:36:46;;;;;;;7.70;5.17;;;1.20;99.90;;;;;;4948839;28;20444;-66
2020/12/27 10:39:12;;;;;;;9.20;4.63;;;1.10;99.90;;;;;;4948516;28;20420;-66
2020/12/27 10:41:45;;;;;;;7.03;4.83;;;1.10;99.90;;;;;;4949036;28;20431;-66
2020/12/27 10:44:10;;;;;;;8.00;5.53;;;1.10;99.90;;;;;;4949676;28;20208;-66
2020/12/27 10:46:36;;;;;;;4.87;4.37;;;1.20;99.90;;;;;;4949263;28;20440;-66
2020/12/27 10:49:02;;;;;;;6.60;4.80;;;1.30;99.90;;;;;;4948215;28;20769;-66
2020/12/27 10:51:36;;;;;;;4.87;4.40;;;1.50;99.90;;;;;;4949095;28;20186;-66
2020/12/27 10:54:02;;;;;;;4.40;4.00;;;1.60;99.90;;;;;;4948768;28;20938;-66
2020/12/27 10:56:27;;;;;;;6.60;4.90;;;1.60;99.90;;;;;;4948923;28;20432;-67
2020/12/27 10:58:53;;;;;;;6.03;4.77;;;1.50;99.90;;;;;;4947848;28;20447;-66
2020/12/27 11:01:19;;;;;;;6.70;4.60;;;1.40;99.90;;;;;;4949024;28;20524;-66
2020/12/27 11:03:44;;;;;;;7.03;4.43;;;1.30;99.90;;;;;;4948682;28;20209;-66
2020/12/27 11:06:10;;;;;;;5.07;4.53;;;1.30;99.90;;;;;;4949003;28;20181;-66
2020/12/27 11:08:35;;;;;;;6.47;5.30;;;1.20;99.90;;;;;;4948246;28;20169;-66
2020/12/27 11:11:01;;;;;;;5.70;3.47;;;1.20;99.90;;;;;;4948812;28;20240;-66
2020/12/27 11:13:26;;;;;;;4.77;3.90;;;1.30;99.90;;;;;;4949438;29;20820;-66
2020/12/27 11:15:52;;;;;;;5.10;4.60;;;1.30;99.90;;;;;;4949226;28;20554;-66
2020/12/27 11:18:17;;;;;;;8.37;5.17;;;1.20;99.90;;;;;;4948385;28;20191;-66
2020/12/27 11:20:43;;;;;;;6.47;4.50;;;1.30;99.90;;;;;;4948640;28;20184;-66
2020/12/27 11:23:09;;;;;;;5.73;4.83;;;1.30;99.90;;;;;;4949098;28;20180;-66
2020/12/27 11:25:34;;;;;;;5.73;4.53;;;1.20;99.90;;;;;;4948700;28;20256;-66
2020/12/27 11:28:00;;;;;;;6.07;4.67;;;1.20;99.90;;;;;;4948645;28;20694;-66
2020/12/27 11:30:25;;;;;;;8.10;5.40;;;1.30;99.90;;;;;;4948864;28;20579;-66
2020/12/27 11:32:51;;;;;;;9.40;5.17;;;1.20;99.90;;;;;;4948601;28;20192;-66
2020/12/27 11:35:16;;;;;;;6.63;5.20;;;1.10;99.90;;;;;;4949096;28;20165;-66
2020/12/27 11:37:42;;;;;;;6.33;5.10;;;1.10;99.90;;;;;;4948002;28;20203;-69
2020/12/27 11:40:08;;;;;;;7.33;5.50;;;1.10;99.90;;;;;;4951104;28;20177;-66
2020/12/27 11:42:35;;;;;;;6.10;5.47;;;1.10;99.90;;;;;;4951975;28;20181;-66
2020/12/27 11:45:03;;;;;;;7.87;5.87;;;1.10;99.90;;;;;;4952129;28;20209;-66
2020/12/27 11:47:28;;;;;;;7.17;6.30;;;1.00;99.90;;;;;;4951758;29;20879;-66
2020/12/27 11:49:54;;;;;;;7.97;6.80;;;1.10;99.90;;;;;;4951471;28;20471;-66
2020/12/27 11:52:24;;;;;;;6.77;6.00;;;1.20;99.90;;;;;;4952164;28;20235;-66
2020/12/27 11:54:53;;;;;;;7.13;6.03;;;1.30;99.90;;;;;;4951889;29;20197;-66
2020/12/27 11:57:19;;;;;;;10.33;6.37;;;1.30;99.90;;;;;;4952089;28;20528;-66
2020/12/27 11:59:45;;;;;;;7.00;6.27;;;1.40;99.90;;;;;;4951135;28;20526;-66
2020/12/27 12:02:10;;;;;;;14.03;7.17;;;1.40;99.90;;;;;;4950792;28;20181;-66
2020/12/27 12:04:36;;;;;;;7.80;7.00;;;1.40;99.90;;;;;;4951619;28;20205;-66
2020/12/27 12:07:02;;;;;;;8.70;7.20;;;1.40;99.90;;;;;;4951943;28;20201;-66
2020/12/27 12:09:27;;;;;;;7.70;5.97;;;1.40;99.90;;;;;;4950955;28;20295;-66
2020/12/27 12:11:53;;;;;;;13.20;6.43;;;1.40;99.90;;;;;;4951904;28;20422;-66
2020/12/27 12:14:18;;;;;;;8.00;6.10;;;1.40;99.90;;;;;;4951918;28;20184;-66
2020/12/27 12:16:44;;;;;;;7.00;6.30;;;1.40;99.90;;;;;;4951433;28;20205;-66
2020/12/27 12:19:10;;;;;;;7.10;6.30;;;1.40;99.90;;;;;;4950866;28;20714;-66
2020/12/27 12:21:35;;;;;;;7.93;6.13;;;1.40;99.90;;;;;;4951431;28;20228;-66
2020/12/27 12:24:01;;;;;;;6.53;5.70;;;1.40;99.90;;;;;;4951601;28;20196;-66
2020/12/27 12:26:28;;;;;;;6.60;5.50;;;1.40;99.90;;;;;;4951189;28;21060;-66
2020/12/27 12:28:55;;;;;;;8.10;6.13;;;1.40;99.90;;;;;;4950601;28;20189;-66
2020/12/27 12:31:21;;;;;;;6.90;5.60;;;1.40;99.90;;;;;;4951498;28;20466;-67
2020/12/27 12:33:48;;;;;;;7.30;6.07;;;1.40;99.90;;;;;;4951212;28;20452;-67
2020/12/27 12:36:15;;;;;;;7.60;5.60;;;1.50;99.90;;;;;;4951298;28;20886;-66
2020/12/27 12:38:41;;;;;;;6.00;5.40;;;1.50;99.90;;;;;;4950256;28;20440;-67
2020/12/27 12:41:11;;;;;;;5.80;5.30;;;1.60;99.90;;;;;;4951095;28;20433;-67
2020/12/27 12:43:46;;;;;;;8.50;7.60;;;1.60;99.90;;;;;;4951024;28;20553;-67
2020/12/27 12:46:12;;;;;;;13.33;6.90;;;1.60;99.90;;;;;;4951228;28;20554;-66
2020/12/27 12:48:38;;;;;;;6.30;5.50;;;1.60;99.90;;;;;;4949970;28;20539;-67
2020/12/27 12:51:05;;;;;;;8.17;5.73;;;1.60;99.90;;;;;;4949776;28;20471;-67
2020/12/27 12:53:30;;;;;;;7.80;6.20;;;1.60;99.90;;;;;;4950750;28;20421;-67